createdAt,value
2019-01-16T00:00:26.441Z,7.37
2019-01-16T00:01:26.412Z,7.34
2019-01-16T00:02:26.411Z,7.40
2019-01-16T00:03:26.422Z,7.37
2019-01-16T00:04:26.384Z,7.38
2019-01-16T00:05:26.368Z,7.38
2019-01-16T00:06:26.357Z,7.35
2019-01-16T00:07:26.350Z,7.44
2019-01-16T00:08:26.347Z,7.44
2019-01-16T00:09:26.317Z,7.44
2019-01-16T00:10:26.305Z,7.40
2019-01-16T00:11:26.306Z,7.38
2019-01-16T00:12:26.284Z,7.44
2019-01-16T00:13:26.287Z,7.42
2019-01-16T00:14:26.265Z,7.34
2019-01-16T00:15:26.251Z,7.38
2019-01-16T00:16:26.243Z,7.38
2019-01-16T00:17:26.233Z,7.40
2019-01-16T00:18:26.271Z,7.44
2019-01-16T00:19:26.222Z,7.35
2019-01-16T00:20:26.213Z,7.34
2019-01-16T00:21:26.214Z,7.41
2019-01-16T00:22:26.180Z,7.34
2019-01-16T00:23:26.162Z,7.42
2019-01-16T00:24:26.181Z,7.38
2019-01-16T00:25:26.138Z,7.44
2019-01-16T00:26:26.128Z,7.44
2019-01-16T00:27:26.116Z,7.38
2019-01-16T00:28:26.099Z,7.45
2019-01-16T00:29:26.112Z,7.44
2019-01-16T00:30:26.085Z,7.44
2019-01-16T00:31:26.069Z,7.45
2019-01-16T00:32:26.059Z,7.53
2019-01-16T00:33:26.052Z,7.40
2019-01-16T00:34:26.059Z,7.44
2019-01-16T00:35:26.033Z,7.47
2019-01-16T00:36:26.034Z,7.44
2019-01-16T00:37:26.018Z,7.44
2019-01-16T00:38:26.041Z,7.45
2019-01-16T00:39:26.004Z,7.47
2019-01-16T00:40:25.987Z,7.44
2019-01-16T00:41:25.967Z,7.42
2019-01-16T00:42:25.969Z,7.41
2019-01-16T00:43:25.984Z,7.53
2019-01-16T00:44:25.963Z,7.49
2019-01-16T00:45:25.926Z,7.52
2019-01-16T00:46:25.910Z,7.60
2019-01-16T00:47:25.903Z,7.58
2019-01-16T00:48:25.888Z,7.56
2019-01-16T00:49:25.895Z,7.55
2019-01-16T00:50:25.859Z,7.59
2019-01-16T00:51:25.850Z,7.56
2019-01-16T00:52:25.840Z,7.60
2019-01-16T00:53:25.867Z,7.58
2019-01-16T00:54:25.841Z,7.60
2019-01-16T00:55:25.806Z,7.59
2019-01-16T00:56:25.790Z,7.55
2019-01-16T00:57:25.795Z,7.56
2019-01-16T00:58:25.794Z,7.60
2019-01-16T00:59:25.847Z,7.50
2019-01-16T01:00:25.755Z,7.56
2019-01-16T01:01:25.735Z,7.55
2019-01-16T01:02:25.736Z,7.53
2019-01-16T01:03:25.710Z,7.62
2019-01-16T01:04:25.722Z,7.55
2019-01-16T01:05:25.725Z,7.56
2019-01-16T01:06:25.712Z,7.59
2019-01-16T01:07:25.677Z,7.67
2019-01-16T01:08:25.660Z,7.59
2019-01-16T01:09:25.660Z,7.60
2019-01-16T01:10:25.655Z,7.66
2019-01-16T01:11:25.631Z,7.66
2019-01-16T01:12:25.610Z,7.59
2019-01-16T01:13:25.598Z,7.66
2019-01-16T01:14:25.594Z,7.62
2019-01-16T01:15:25.601Z,7.75
2019-01-16T01:16:33.826Z,7.72
2019-01-16T01:17:40.009Z,7.69
2019-01-16T01:18:40.448Z,7.71
2019-01-16T01:20:35.651Z,7.67
2019-01-16T01:21:35.827Z,7.66
2019-01-16T01:22:35.606Z,7.69
2019-01-16T01:23:36.074Z,7.67
2019-01-16T01:24:36.002Z,7.69
2019-01-16T01:25:35.599Z,7.69
2019-01-16T01:26:35.552Z,7.60
2019-01-16T01:27:35.518Z,7.63
2019-01-16T01:28:35.758Z,7.63
2019-01-16T01:29:35.518Z,7.67
2019-01-16T01:30:35.524Z,7.63
2019-01-16T01:31:35.466Z,7.66
2019-01-16T01:32:35.507Z,7.63
2019-01-16T01:33:35.513Z,7.67
2019-01-16T01:34:35.471Z,7.67
2019-01-16T01:35:35.341Z,7.56
2019-01-16T01:36:35.277Z,7.69
2019-01-16T01:37:43.369Z,7.71
2019-01-16T01:38:35.446Z,7.67
2019-01-16T01:39:42.764Z,7.74
2019-01-16T01:40:37.435Z,7.67
2019-01-16T01:41:35.718Z,7.72
2019-01-16T01:42:35.380Z,7.67
2019-01-16T01:43:35.362Z,7.60
2019-01-16T01:44:35.355Z,7.72
2019-01-16T01:45:35.430Z,7.66
2019-01-16T01:46:35.351Z,7.74
2019-01-16T01:47:35.646Z,7.62
2019-01-16T01:48:39.927Z,7.72
2019-01-16T01:49:36.299Z,7.74
2019-01-16T01:50:35.604Z,7.72
2019-01-16T01:51:35.653Z,7.75
2019-01-16T01:52:35.266Z,7.74
2019-01-16T01:53:35.243Z,7.62
2019-01-16T01:54:35.275Z,7.79
2019-01-16T01:55:35.606Z,7.74
2019-01-16T01:56:35.640Z,7.77
2019-01-16T01:57:35.328Z,7.77
2019-01-16T01:58:35.621Z,7.71
2019-01-16T01:59:35.417Z,7.79
2019-01-16T02:00:35.194Z,7.77
2019-01-16T02:01:35.198Z,7.77
2019-01-16T02:02:35.018Z,7.77
2019-01-16T02:03:34.934Z,7.79
2019-01-16T02:04:35.616Z,7.74
2019-01-16T02:05:35.107Z,7.79
2019-01-16T02:06:34.836Z,7.74
2019-01-16T02:07:34.792Z,7.78
2019-01-16T02:08:34.774Z,7.84
2019-01-16T02:09:34.782Z,7.77
2019-01-16T02:10:34.775Z,7.69
2019-01-16T02:11:34.754Z,7.77
2019-01-16T02:12:34.723Z,7.72
2019-01-16T02:13:34.710Z,7.78
2019-01-16T02:14:34.715Z,7.74
2019-01-16T02:15:34.685Z,7.78
2019-01-16T02:16:34.698Z,7.75
2019-01-16T02:17:34.662Z,7.75
2019-01-16T02:18:34.655Z,7.78
2019-01-16T02:19:34.648Z,7.78
2019-01-16T02:20:34.635Z,7.77
2019-01-16T02:21:34.678Z,7.74
2019-01-16T02:22:34.611Z,7.74
2019-01-16T02:23:34.597Z,7.75
2019-01-16T02:24:34.586Z,7.77
2019-01-16T02:25:34.583Z,7.78
2019-01-16T02:26:34.617Z,7.74
2019-01-16T02:27:34.556Z,7.72
2019-01-16T02:28:34.547Z,7.79
2019-01-16T02:29:34.531Z,7.74
2019-01-16T02:30:34.523Z,7.74
2019-01-16T02:31:34.514Z,7.78
2019-01-16T02:32:34.525Z,7.79
2019-01-16T02:33:34.498Z,7.74
2019-01-16T02:34:34.474Z,7.74
2019-01-16T02:35:34.471Z,7.72
2019-01-16T02:36:34.464Z,7.82
2019-01-16T02:37:34.452Z,7.78
2019-01-16T02:38:34.452Z,7.81
2019-01-16T02:39:34.444Z,7.72
2019-01-16T02:40:34.407Z,7.78
2019-01-16T02:41:34.395Z,7.74
2019-01-16T02:42:34.403Z,7.74
2019-01-16T02:43:34.373Z,7.82
2019-01-16T02:44:34.374Z,7.74
2019-01-16T02:45:34.350Z,7.78
2019-01-16T02:46:34.338Z,7.78
2019-01-16T02:47:34.347Z,7.79
2019-01-16T02:48:34.332Z,7.74
2019-01-16T02:49:34.306Z,7.74
2019-01-16T02:50:34.312Z,7.81
2019-01-16T02:51:34.282Z,7.75
2019-01-16T02:52:34.290Z,7.78
2019-01-16T02:53:34.278Z,7.77
2019-01-16T02:54:34.288Z,7.78
2019-01-16T02:55:34.241Z,7.75
2019-01-16T02:56:34.239Z,7.72
2019-01-16T02:57:34.229Z,7.71
2019-01-16T02:58:34.207Z,7.79
2019-01-16T02:59:34.202Z,7.78
2019-01-16T03:00:34.180Z,7.81
2019-01-16T03:01:34.793Z,7.75
2019-01-16T03:02:34.178Z,7.74
2019-01-16T03:03:34.149Z,7.81
2019-01-16T03:04:34.137Z,7.79
2019-01-16T03:05:34.143Z,7.77
2019-01-16T03:06:34.115Z,7.62
2019-01-16T03:07:34.126Z,7.75
2019-01-16T03:08:34.092Z,7.79
2019-01-16T03:09:34.086Z,7.79
2019-01-16T03:10:34.081Z,7.77
2019-01-16T03:11:34.091Z,7.72
2019-01-16T03:12:34.075Z,7.79
2019-01-16T03:13:34.036Z,7.66
2019-01-16T03:14:34.029Z,7.74
2019-01-16T03:15:34.027Z,7.75
2019-01-16T03:16:34.041Z,7.60
2019-01-16T03:17:34.014Z,7.63
2019-01-16T03:18:34.016Z,7.77
2019-01-16T03:19:34.080Z,7.72
2019-01-16T03:20:33.980Z,7.72
2019-01-16T03:21:33.954Z,7.72
2019-01-16T03:22:33.958Z,7.72
2019-01-16T03:23:33.953Z,7.67
2019-01-16T03:24:33.926Z,7.66
2019-01-16T03:25:33.899Z,7.71
2019-01-16T03:26:33.919Z,7.67
2019-01-16T03:27:33.885Z,7.71
2019-01-16T03:28:33.893Z,7.67
2019-01-16T03:29:33.864Z,7.72
2019-01-16T03:30:33.857Z,7.69
2019-01-16T03:31:33.873Z,7.60
2019-01-16T03:32:33.842Z,7.62
2019-01-16T03:33:33.858Z,7.74
2019-01-16T03:34:33.841Z,7.60
2019-01-16T03:35:33.809Z,7.66
2019-01-16T03:36:33.783Z,7.62
2019-01-16T03:37:33.765Z,7.58
2019-01-16T03:38:33.771Z,7.69
2019-01-16T03:39:33.774Z,7.62
2019-01-16T03:40:33.791Z,7.62
2019-01-16T03:41:33.737Z,7.55
2019-01-16T03:42:33.715Z,7.55
2019-01-16T03:43:33.719Z,7.58
2019-01-16T03:44:33.711Z,7.67
2019-01-16T03:45:33.715Z,7.62
2019-01-16T03:46:33.677Z,7.62
2019-01-16T03:47:33.669Z,7.59
2019-01-16T03:48:33.661Z,7.66
2019-01-16T03:49:33.640Z,7.62
2019-01-16T03:50:33.647Z,7.59
2019-01-16T03:51:33.636Z,7.60
2019-01-16T03:52:33.631Z,7.60
2019-01-16T03:53:33.607Z,7.55
2019-01-16T03:54:33.582Z,7.59
2019-01-16T03:55:33.572Z,7.52
2019-01-16T03:56:33.579Z,7.55
2019-01-16T03:57:33.544Z,7.63
2019-01-16T03:58:33.557Z,7.58
2019-01-16T03:59:33.556Z,7.56
2019-01-16T04:00:33.526Z,7.60
2019-01-16T04:01:33.521Z,7.59
2019-01-16T04:02:33.520Z,7.59
2019-01-16T04:03:33.515Z,7.60
2019-01-16T04:04:33.468Z,7.58
2019-01-16T04:05:33.455Z,7.58
2019-01-16T04:06:33.449Z,7.59
2019-01-16T04:07:33.471Z,7.53
2019-01-16T04:08:33.434Z,7.60
2019-01-16T04:09:33.431Z,7.55
2019-01-16T04:10:33.433Z,7.55
2019-01-16T04:11:33.391Z,7.58
2019-01-16T04:12:33.394Z,7.59
2019-01-16T04:13:33.429Z,7.62
2019-01-16T04:14:33.367Z,7.63
2019-01-16T04:15:33.355Z,7.60
2019-01-16T04:16:33.335Z,7.63
2019-01-16T04:17:33.329Z,7.58
2019-01-16T04:18:33.341Z,7.58
2019-01-16T04:19:33.339Z,7.58
2019-01-16T04:20:33.301Z,7.58
2019-01-16T04:21:33.279Z,7.59
2019-01-16T04:22:33.266Z,7.58
2019-01-16T04:23:33.261Z,7.58
2019-01-16T04:24:33.281Z,7.49
2019-01-16T04:25:33.235Z,7.60
2019-01-16T04:26:33.238Z,7.50
2019-01-16T04:27:33.233Z,7.63
2019-01-16T04:28:33.240Z,7.63
2019-01-16T04:29:33.212Z,7.60
2019-01-16T04:30:33.214Z,7.55
2019-01-16T04:31:33.199Z,7.56
2019-01-16T04:32:33.156Z,7.58
2019-01-16T04:33:33.151Z,7.60
2019-01-16T04:34:33.181Z,7.58
2019-01-16T04:35:33.171Z,7.60
2019-01-16T04:36:33.116Z,7.55
2019-01-16T04:37:33.144Z,7.60
2019-01-16T04:38:33.089Z,7.55
2019-01-16T04:39:33.078Z,7.66
2019-01-16T04:40:33.084Z,7.62
2019-01-16T04:41:33.088Z,7.60
2019-01-16T04:42:33.048Z,7.67
2019-01-16T04:43:33.064Z,7.62
2019-01-16T04:44:33.024Z,7.67
2019-01-16T04:45:33.028Z,7.56
2019-01-16T04:46:33.027Z,7.67
2019-01-16T04:47:33.010Z,7.58
2019-01-16T04:48:33.035Z,7.56
2019-01-16T04:49:32.968Z,7.59
2019-01-16T04:50:32.975Z,7.50
2019-01-16T04:51:32.949Z,7.62
2019-01-16T04:52:32.971Z,7.55
2019-01-16T04:53:32.929Z,7.59
2019-01-16T04:54:32.914Z,7.60
2019-01-16T04:55:32.918Z,7.59
2019-01-16T04:56:32.891Z,7.58
2019-01-16T04:57:32.906Z,7.60
2019-01-16T04:58:32.877Z,7.60
2019-01-16T04:59:32.896Z,7.63
2019-01-16T05:00:32.873Z,7.62
2019-01-16T05:01:32.864Z,7.56
2019-01-16T05:02:32.834Z,7.56
2019-01-16T05:03:32.822Z,7.59
2019-01-16T05:04:32.813Z,7.59
2019-01-16T05:05:32.815Z,7.49
2019-01-16T05:06:32.825Z,7.60
2019-01-16T05:07:32.777Z,7.60
2019-01-16T05:08:32.764Z,7.63
2019-01-16T05:09:32.758Z,7.55
2019-01-16T05:10:32.770Z,7.58
2019-01-16T05:11:32.753Z,7.56
2019-01-16T05:12:32.719Z,7.59
2019-01-16T05:13:32.712Z,7.56
2019-01-16T05:14:32.699Z,7.59
2019-01-16T05:15:32.724Z,7.62
2019-01-16T05:16:32.699Z,7.58
2019-01-16T05:17:32.652Z,7.63
2019-01-16T05:18:32.637Z,7.56
2019-01-16T05:19:38.531Z,7.60
2019-01-16T05:20:33.671Z,7.56
2019-01-16T05:21:32.642Z,7.62
2019-01-16T05:22:32.620Z,7.60
2019-01-16T05:23:32.626Z,7.58
2019-01-16T05:24:32.578Z,7.55
2019-01-16T05:25:32.572Z,7.58
2019-01-16T05:26:32.575Z,7.55
2019-01-16T05:27:32.598Z,7.60
2019-01-16T05:28:32.540Z,7.60
2019-01-16T05:29:32.548Z,7.62
2019-01-16T05:30:32.506Z,7.60
2019-01-16T05:31:32.588Z,7.58
2019-01-16T05:32:32.499Z,7.59
2019-01-16T05:33:32.488Z,7.53
2019-01-16T05:34:32.472Z,7.56
2019-01-16T05:35:33.055Z,7.66
2019-01-16T05:36:32.539Z,7.59
2019-01-16T05:37:33.056Z,7.53
2019-01-16T05:38:32.446Z,7.59
2019-01-16T05:39:32.482Z,7.63
2019-01-16T05:40:32.424Z,7.60
2019-01-16T05:41:32.419Z,7.63
2019-01-16T05:42:32.411Z,7.58
2019-01-16T05:43:32.373Z,7.63
2019-01-16T05:44:32.373Z,7.72
2019-01-16T05:45:32.368Z,7.63
2019-01-16T05:46:32.353Z,7.69
2019-01-16T05:47:32.329Z,7.67
2019-01-16T05:48:32.325Z,7.67
2019-01-16T05:49:32.320Z,7.63
2019-01-16T05:50:32.335Z,7.67
2019-01-16T05:51:32.333Z,7.52
2019-01-16T05:52:32.386Z,7.59
2019-01-16T05:53:32.276Z,7.59
2019-01-16T05:54:32.293Z,7.58
2019-01-16T05:55:32.256Z,7.55
2019-01-16T05:56:32.271Z,7.59
2019-01-16T05:57:33.061Z,7.69
2019-01-16T05:58:32.260Z,7.60
2019-01-16T05:59:32.299Z,7.60
2019-01-16T06:00:32.200Z,7.62
2019-01-16T06:01:32.212Z,7.72
2019-01-16T06:02:32.214Z,7.63
2019-01-16T06:03:32.145Z,7.62
2019-01-16T06:04:32.178Z,7.66
2019-01-16T06:05:32.200Z,7.72
2019-01-16T06:06:32.189Z,7.67
2019-01-16T06:07:32.176Z,7.71
2019-01-16T06:08:32.108Z,7.66
2019-01-16T06:09:32.125Z,7.67
2019-01-16T06:10:32.102Z,7.67
2019-01-16T06:11:32.154Z,7.59
2019-01-16T06:12:32.124Z,7.69
2019-01-16T06:13:32.087Z,7.67
2019-01-16T06:14:32.067Z,7.59
2019-01-16T06:15:32.019Z,7.63
2019-01-16T06:16:32.104Z,7.66
2019-01-16T06:17:32.624Z,7.69
2019-01-16T06:18:31.999Z,7.59
2019-01-16T06:19:32.041Z,7.74
2019-01-16T06:20:31.976Z,7.72
2019-01-16T06:21:32.039Z,7.62
2019-01-16T06:22:31.972Z,7.67
2019-01-16T06:23:31.947Z,7.71
2019-01-16T06:24:31.947Z,7.67
2019-01-16T06:25:31.942Z,7.67
2019-01-16T06:26:31.914Z,7.72
2019-01-16T06:27:32.529Z,7.67
2019-01-16T06:28:31.863Z,7.60
2019-01-16T06:29:31.883Z,7.63
2019-01-16T06:30:31.855Z,7.63
2019-01-16T06:31:31.867Z,7.74
2019-01-16T06:32:31.892Z,7.66
2019-01-16T06:33:31.825Z,7.66
2019-01-16T06:34:31.821Z,7.69
2019-01-16T06:35:31.805Z,7.66
2019-01-16T06:36:31.787Z,7.55
2019-01-16T06:37:31.789Z,7.75
2019-01-16T06:38:31.798Z,7.59
2019-01-16T06:39:31.736Z,7.60
2019-01-16T06:40:31.733Z,7.62
2019-01-16T06:41:31.732Z,7.60
2019-01-16T06:42:31.711Z,7.59
2019-01-16T06:43:31.736Z,7.66
2019-01-16T06:44:31.699Z,7.59
2019-01-16T06:45:31.672Z,7.59
2019-01-16T06:46:31.659Z,7.52
2019-01-16T06:47:31.676Z,7.60
2019-01-16T06:48:31.666Z,7.55
2019-01-16T06:49:31.655Z,7.62
2019-01-16T06:50:31.622Z,7.56
2019-01-16T06:51:31.614Z,7.56
2019-01-16T06:52:31.619Z,7.55
2019-01-16T06:53:31.638Z,7.40
2019-01-16T06:54:31.573Z,7.49
2019-01-16T06:55:31.567Z,7.42
2019-01-16T06:56:31.559Z,7.55
2019-01-16T06:57:31.541Z,7.49
2019-01-16T06:58:31.570Z,7.49
2019-01-16T06:59:31.560Z,7.56
2019-01-16T07:00:31.530Z,7.50
2019-01-16T07:01:31.527Z,7.56
2019-01-16T07:02:31.487Z,7.56
2019-01-16T07:03:31.493Z,7.55
2019-01-16T07:04:31.488Z,7.44
2019-01-16T07:05:31.443Z,7.49
2019-01-16T07:06:31.440Z,7.59
2019-01-16T07:07:39.507Z,7.53
2019-01-16T07:08:40.788Z,7.53
2019-01-16T07:11:06.891Z,7.50
2019-01-16T07:13:09.588Z,7.47
2019-01-16T07:15:24.408Z,7.56
2019-01-16T07:16:31.733Z,7.58
2019-01-16T07:17:25.430Z,7.45
2019-01-16T07:18:23.958Z,7.45
2019-01-16T07:20:38.324Z,7.53
2019-01-16T07:21:28.498Z,7.49
2019-01-16T07:22:37.475Z,7.53
2019-01-16T07:23:28.822Z,7.50
2019-01-16T07:24:28.579Z,7.44
2019-01-16T07:25:28.473Z,7.47
2019-01-16T07:26:28.395Z,7.47
2019-01-16T07:27:28.639Z,7.45
2019-01-16T07:28:38.672Z,7.38
2019-01-16T07:29:36.565Z,7.42
2019-01-16T07:30:37.451Z,7.42
2019-01-16T07:31:39.324Z,7.38
2019-01-16T07:32:37.844Z,7.44
2019-01-16T07:33:36.398Z,7.47
2019-01-16T07:34:29.515Z,7.44
2019-01-16T07:35:28.296Z,7.52
2019-01-16T07:36:28.330Z,7.45
2019-01-16T07:37:28.300Z,7.45
2019-01-16T07:38:28.668Z,7.47
2019-01-16T07:39:28.156Z,7.47
2019-01-16T07:40:28.291Z,7.50
2019-01-16T07:41:32.045Z,7.52
2019-01-16T07:42:27.975Z,7.47
2019-01-16T07:43:27.954Z,7.42
2019-01-16T07:44:27.920Z,7.45
2019-01-16T07:45:28.084Z,7.44
2019-01-16T07:46:27.942Z,7.47
2019-01-16T07:47:35.178Z,7.38
2019-01-16T07:48:28.441Z,7.37
2019-01-16T07:49:28.510Z,7.42
2019-01-16T07:50:29.264Z,7.38
2019-01-16T07:51:28.162Z,7.40
2019-01-16T07:52:28.623Z,7.37
2019-01-16T07:53:28.645Z,7.37
2019-01-16T07:54:28.064Z,7.49
2019-01-16T07:55:28.138Z,7.42
2019-01-16T07:56:28.067Z,7.49
2019-01-16T07:57:27.965Z,7.40
2019-01-16T07:58:27.865Z,7.44
2019-01-16T07:59:27.846Z,7.47
2019-01-16T08:00:42.393Z,7.42
2019-01-16T08:01:28.009Z,7.38
2019-01-16T08:02:27.699Z,7.40
2019-01-16T08:03:28.799Z,7.41
2019-01-16T08:04:27.721Z,7.40
2019-01-16T08:05:27.662Z,7.40
2019-01-16T08:06:27.636Z,7.42
2019-01-16T08:07:27.711Z,7.49
2019-01-16T08:08:27.633Z,7.49
2019-01-16T08:09:27.644Z,7.44
2019-01-16T08:10:27.743Z,7.50
2019-01-16T08:11:27.591Z,7.42
2019-01-16T08:12:27.576Z,7.50
2019-01-16T08:13:27.579Z,7.42
2019-01-16T08:14:27.542Z,7.49
2019-01-16T08:15:27.531Z,7.56
2019-01-16T08:16:27.534Z,7.45
2019-01-16T08:17:27.506Z,7.52
2019-01-16T08:18:27.530Z,7.55
2019-01-16T08:19:27.536Z,7.45
2019-01-16T08:20:27.520Z,7.49
2019-01-16T08:21:27.533Z,7.42
2019-01-16T08:22:28.093Z,7.49
2019-01-16T08:23:27.467Z,7.37
2019-01-16T08:24:27.516Z,7.40
2019-01-16T08:25:27.464Z,7.45
2019-01-16T08:26:27.471Z,7.47
2019-01-16T08:27:27.418Z,7.45
2019-01-16T08:28:27.405Z,7.45
2019-01-16T08:29:27.427Z,7.38
2019-01-16T08:30:27.385Z,7.41
2019-01-16T08:31:27.434Z,7.40
2019-01-16T08:32:27.340Z,7.49
2019-01-16T08:33:27.357Z,7.42
2019-01-16T08:34:27.354Z,7.47
2019-01-16T08:35:27.356Z,7.42
2019-01-16T08:36:27.323Z,7.41
2019-01-16T08:37:27.293Z,7.47
2019-01-16T08:38:27.280Z,7.40
2019-01-16T08:39:27.287Z,7.34
2019-01-16T08:40:27.254Z,7.42
2019-01-16T08:41:27.285Z,7.38
2019-01-16T08:42:27.259Z,7.38
2019-01-16T08:43:27.232Z,7.42
2019-01-16T08:44:27.213Z,7.40
2019-01-16T08:45:27.195Z,7.45
2019-01-16T08:46:27.247Z,7.47
2019-01-16T08:47:27.211Z,7.52
2019-01-16T08:48:27.192Z,7.45
2019-01-16T08:49:27.209Z,7.50
2019-01-16T08:50:32.404Z,7.53
2019-01-16T08:51:28.185Z,7.50
2019-01-16T08:52:27.131Z,7.52
2019-01-16T08:53:27.173Z,7.42
2019-01-16T08:54:27.111Z,7.52
2019-01-16T08:55:27.097Z,7.53
2019-01-16T08:56:28.010Z,7.52
2019-01-16T08:57:27.136Z,7.50
2019-01-16T08:58:27.089Z,7.52
2019-01-16T08:59:41.751Z,7.56
2019-01-16T09:00:27.146Z,7.52
2019-01-16T09:01:32.556Z,7.63
2019-01-16T09:02:28.078Z,7.52
2019-01-16T09:03:27.022Z,7.66
2019-01-16T09:04:27.032Z,7.55
2019-01-16T09:05:27.028Z,7.59
2019-01-16T09:06:27.010Z,7.66
2019-01-16T09:07:27.040Z,7.58
2019-01-16T09:08:27.967Z,7.56
2019-01-16T09:09:26.932Z,7.53
2019-01-16T09:10:26.929Z,7.59
2019-01-16T09:11:26.899Z,7.60
2019-01-16T09:12:27.700Z,7.58
2019-01-16T09:13:26.913Z,7.55
2019-01-16T09:14:26.878Z,7.55
2019-01-16T09:15:26.892Z,7.55
2019-01-16T09:16:27.535Z,7.58
2019-01-16T09:17:26.888Z,7.55
2019-01-16T09:18:26.847Z,7.50
2019-01-16T09:19:26.820Z,7.60
2019-01-16T09:20:26.813Z,7.63
2019-01-16T09:21:26.793Z,7.52
2019-01-16T09:22:26.832Z,7.55
2019-01-16T09:23:26.778Z,7.63
2019-01-16T09:24:26.857Z,7.67
2019-01-16T09:25:26.748Z,7.56
2019-01-16T09:26:26.750Z,7.58
2019-01-16T09:27:26.801Z,7.58
2019-01-16T09:28:26.721Z,7.52
2019-01-16T09:29:26.936Z,7.60
2019-01-16T09:30:27.272Z,7.55
2019-01-16T09:31:26.919Z,7.60
2019-01-16T09:32:26.798Z,7.59
2019-01-16T09:33:26.751Z,7.58
2019-01-16T09:34:26.730Z,7.59
2019-01-16T09:35:26.650Z,7.58
2019-01-16T09:36:26.719Z,7.60
2019-01-16T09:37:27.623Z,7.56
2019-01-16T09:38:26.644Z,7.44
2019-01-16T09:39:26.653Z,7.53
2019-01-16T09:40:26.661Z,7.52
2019-01-16T09:41:26.639Z,7.55
2019-01-16T09:42:26.811Z,7.59
2019-01-16T09:43:27.203Z,7.59
2019-01-16T09:44:29.328Z,7.59
2019-01-16T09:45:26.531Z,7.53
2019-01-16T09:46:26.551Z,7.66
2019-01-16T09:47:26.527Z,7.53
2019-01-16T09:48:26.583Z,7.62
2019-01-16T09:49:26.504Z,7.69
2019-01-16T09:50:26.580Z,7.60
2019-01-16T09:51:26.502Z,7.58
2019-01-16T09:52:26.466Z,7.60
2019-01-16T09:53:26.480Z,7.63
2019-01-16T09:54:26.465Z,7.63
2019-01-16T09:55:26.460Z,7.69
2019-01-16T09:56:26.422Z,7.63
2019-01-16T09:57:26.388Z,7.67
2019-01-16T09:58:26.417Z,7.69
2019-01-16T09:59:26.373Z,7.72
2019-01-16T10:00:26.384Z,7.67
2019-01-16T10:01:26.342Z,7.63
2019-01-16T10:02:26.326Z,7.67
2019-01-16T10:03:26.362Z,7.71
2019-01-16T10:04:26.316Z,7.56
2019-01-16T10:05:26.343Z,7.59
2019-01-16T10:06:26.321Z,7.55
2019-01-16T10:07:26.285Z,7.56
2019-01-16T10:08:26.324Z,7.52
2019-01-16T10:09:26.283Z,7.58
2019-01-16T10:10:26.275Z,7.45
2019-01-16T10:11:26.288Z,7.45
2019-01-16T10:12:26.234Z,7.44
2019-01-16T10:13:26.266Z,7.45
2019-01-16T10:14:26.239Z,7.49
2019-01-16T10:15:26.289Z,7.47
2019-01-16T10:16:26.207Z,7.44
2019-01-16T10:17:26.320Z,7.40
2019-01-16T10:18:26.240Z,7.42
2019-01-16T10:19:26.191Z,7.47
2019-01-16T10:20:28.168Z,7.32
2019-01-16T10:21:26.201Z,7.42
2019-01-16T10:22:26.165Z,7.45
2019-01-16T10:23:26.143Z,7.38
2019-01-16T10:24:26.117Z,7.34
2019-01-16T10:25:26.102Z,7.42
2019-01-16T10:26:26.067Z,7.47
2019-01-16T10:27:26.100Z,7.45
2019-01-16T10:28:26.074Z,7.44
2019-01-16T10:29:26.063Z,7.44
2019-01-16T10:30:26.024Z,7.38
2019-01-16T10:31:26.021Z,7.37
2019-01-16T10:32:26.059Z,7.40
2019-01-16T10:33:26.008Z,7.41
2019-01-16T10:34:26.045Z,7.42
2019-01-16T10:35:26.022Z,7.44
2019-01-16T10:36:25.966Z,7.44
2019-01-16T10:37:25.974Z,7.47
2019-01-16T10:38:26.018Z,7.35
2019-01-16T10:39:25.953Z,7.41
2019-01-16T10:40:25.906Z,7.37
2019-01-16T10:41:25.900Z,7.35
2019-01-16T10:42:25.938Z,7.29
2019-01-16T10:43:25.908Z,7.37
2019-01-16T10:44:25.906Z,7.40
2019-01-16T10:45:25.883Z,7.37
2019-01-16T10:46:25.887Z,7.37
2019-01-16T10:47:25.833Z,7.42
2019-01-16T10:48:25.834Z,7.37
2019-01-16T10:49:25.827Z,7.35
2019-01-16T10:50:25.837Z,7.38
2019-01-16T10:51:25.785Z,7.35
2019-01-16T10:52:25.821Z,7.37
2019-01-16T10:53:25.776Z,7.35
2019-01-16T10:54:25.795Z,7.35
2019-01-16T10:55:25.770Z,7.41
2019-01-16T10:56:32.569Z,7.40
2019-01-16T10:57:26.933Z,7.38
2019-01-16T10:58:25.700Z,7.40
2019-01-16T10:59:25.697Z,7.49
2019-01-16T11:00:25.761Z,7.45
2019-01-16T11:01:25.672Z,7.41
2019-01-16T11:02:26.623Z,7.47
2019-01-16T11:03:25.695Z,7.49
2019-01-16T11:04:25.684Z,7.47
2019-01-16T11:05:25.670Z,7.45
2019-01-16T11:06:25.732Z,7.44
2019-01-16T11:07:25.632Z,7.47
2019-01-16T11:08:25.634Z,7.42
2019-01-16T11:09:25.626Z,7.45
2019-01-16T11:10:25.632Z,7.40
2019-01-16T11:11:25.579Z,7.40
2019-01-16T11:12:25.609Z,7.44
2019-01-16T11:13:25.571Z,7.34
2019-01-16T11:14:25.543Z,7.49
2019-01-16T11:15:25.595Z,7.50
2019-01-16T11:16:25.526Z,7.38
2019-01-16T11:17:25.556Z,7.37
2019-01-16T11:18:25.480Z,7.38
2019-01-16T11:19:25.481Z,7.32
2019-01-16T11:20:25.456Z,7.45
2019-01-16T11:21:25.528Z,7.45
2019-01-16T11:22:25.497Z,7.44
2019-01-16T11:26:08.462Z,7.52
2019-01-16T11:27:03.696Z,7.50
2019-01-16T11:28:06.022Z,7.55
2019-01-16T11:30:38.403Z,7.59
2019-01-16T11:31:13.219Z,7.58
2019-01-16T11:32:17.044Z,7.60
2019-01-16T11:33:17.188Z,7.60
2019-01-16T11:34:13.318Z,7.59
2019-01-16T11:35:12.960Z,7.60
2019-01-16T11:36:13.209Z,7.56
2019-01-16T11:37:12.825Z,7.58
2019-01-16T11:38:12.724Z,7.62
2019-01-16T11:39:12.881Z,7.56
2019-01-16T11:40:12.918Z,7.55
2019-01-16T11:41:12.903Z,7.63
2019-01-16T11:42:12.543Z,7.59
2019-01-16T11:43:12.546Z,7.56
2019-01-16T11:44:12.534Z,7.58
2019-01-16T11:45:12.522Z,7.71
2019-01-16T11:46:12.507Z,7.66
2019-01-16T11:47:12.490Z,7.67
2019-01-16T11:48:12.533Z,7.74
2019-01-16T11:49:12.536Z,7.69
2019-01-16T11:50:12.487Z,7.66
2019-01-16T11:51:18.690Z,7.60
2019-01-16T11:52:13.430Z,7.74
2019-01-16T11:53:12.423Z,7.77
2019-01-16T11:54:12.446Z,7.78
2019-01-16T11:55:12.402Z,7.78
2019-01-16T11:56:12.391Z,7.77
2019-01-16T11:57:12.368Z,7.78
2019-01-16T11:58:12.362Z,7.78
2019-01-16T11:59:12.356Z,7.77
2019-01-16T12:00:12.341Z,7.77
2019-01-16T12:01:12.364Z,7.72
2019-01-16T12:02:12.351Z,7.75
2019-01-16T12:03:12.303Z,7.81
2019-01-16T12:04:12.332Z,7.78
2019-01-16T12:05:12.285Z,7.77
2019-01-16T12:06:12.315Z,7.84
2019-01-16T12:07:12.272Z,7.84
2019-01-16T12:08:12.262Z,7.87
2019-01-16T12:09:12.244Z,7.89
2019-01-16T12:10:12.228Z,7.84
2019-01-16T12:11:12.215Z,7.84
2019-01-16T12:12:12.282Z,7.74
2019-01-16T12:13:12.199Z,7.81
2019-01-16T12:14:12.187Z,7.89
2019-01-16T12:15:12.238Z,7.84
2019-01-16T12:16:12.228Z,7.79
2019-01-16T12:17:12.153Z,7.89
2019-01-16T12:18:12.139Z,7.82
2019-01-16T12:19:12.162Z,7.87
2019-01-16T12:20:12.120Z,7.85
2019-01-16T12:21:12.108Z,7.90
2019-01-16T12:22:12.099Z,7.85
2019-01-16T12:23:12.076Z,7.87
2019-01-16T12:24:12.087Z,7.87
2019-01-16T12:25:12.058Z,7.92
2019-01-16T12:26:12.071Z,7.97
2019-01-16T12:27:12.075Z,7.87
2019-01-16T12:28:12.027Z,7.87
2019-01-16T12:29:12.009Z,7.97
2019-01-16T12:30:12.020Z,7.90
2019-01-16T12:31:11.986Z,7.89
2019-01-16T12:32:11.989Z,7.90
2019-01-16T12:33:11.977Z,7.89
2019-01-16T12:34:11.954Z,7.85
2019-01-16T12:35:11.951Z,7.82
2019-01-16T12:36:11.968Z,7.84
2019-01-16T12:37:11.963Z,7.90
2019-01-16T12:38:11.936Z,7.82
2019-01-16T12:39:11.931Z,7.85
2019-01-16T12:40:11.901Z,7.92
2019-01-16T12:41:11.878Z,7.87
2019-01-16T12:42:11.861Z,7.94
2019-01-16T12:43:11.870Z,7.97
2019-01-16T12:44:11.848Z,7.94
2019-01-16T12:45:11.829Z,7.94
2019-01-16T12:46:11.850Z,7.94
2019-01-16T12:47:11.817Z,7.92
2019-01-16T12:48:11.839Z,7.96
2019-01-16T12:49:11.786Z,8.00
2019-01-16T12:50:11.776Z,7.94
2019-01-16T12:51:11.760Z,7.97
2019-01-16T12:52:15.337Z,7.97
2019-01-16T12:53:11.866Z,7.96
2019-01-16T12:54:11.729Z,7.96
2019-01-16T12:55:11.796Z,7.96
2019-01-16T12:56:11.746Z,8.03
2019-01-16T12:57:19.055Z,7.96
2019-01-16T12:59:27.876Z,7.97
2019-01-16T13:01:38.501Z,7.90
2019-01-16T13:02:45.499Z,7.99
2019-01-16T13:05:05.159Z,7.94
2019-01-16T13:06:05.070Z,7.92
2019-01-16T13:07:05.099Z,7.92
2019-01-16T13:08:05.019Z,7.94
2019-01-16T13:12:28.769Z,7.99
2019-01-16T13:13:21.114Z,7.94
2019-01-16T13:15:43.607Z,7.99
2019-01-16T13:16:43.548Z,7.87
2019-01-16T13:18:00.936Z,7.84
2019-01-16T13:18:50.543Z,7.79
2019-01-16T13:19:43.560Z,7.81
2019-01-16T13:20:43.333Z,7.82
2019-01-16T13:21:43.495Z,7.81
2019-01-16T13:24:00.798Z,7.74
2019-01-16T13:25:01.445Z,7.77
2019-01-16T13:26:00.775Z,7.77
2019-01-16T13:27:00.501Z,7.77
2019-01-16T13:28:00.757Z,7.78
2019-01-16T13:29:00.752Z,7.82
2019-01-16T13:30:00.742Z,7.89
2019-01-16T13:31:01.510Z,7.84
2019-01-16T13:32:00.742Z,7.77
2019-01-16T13:33:00.715Z,7.78
2019-01-16T13:34:00.717Z,7.82
2019-01-16T13:35:00.725Z,7.81
2019-01-16T13:36:00.670Z,7.81
2019-01-16T13:37:00.668Z,7.77
2019-01-16T13:38:01.041Z,7.79